createdAt,value
2019-05-17T00:05:23.754Z,60.36
2019-05-17T00:13:46.577Z,60.18
2019-05-17T00:22:08.134Z,60.31
2019-05-17T00:30:29.546Z,59.98
2019-05-17T00:38:51.592Z,59.96
2019-05-17T00:47:13.291Z,59.88
2019-05-17T00:55:36.314Z,60.02
2019-05-17T01:03:57.836Z,60.39
2019-05-17T01:12:22.330Z,60.75
2019-05-17T01:20:43.574Z,60.79
2019-05-17T01:29:06.713Z,60.85
2019-05-17T01:37:28.393Z,61.10
2019-05-17T01:45:49.845Z,61.14
2019-05-17T01:54:10.971Z,60.95
2019-05-17T02:02:32.305Z,61.12
2019-05-17T02:10:54.359Z,60.87
2019-05-17T02:19:17.415Z,61.33
2019-05-17T02:27:43.967Z,61.33
2019-05-17T02:36:03.012Z,61.55
2019-05-17T02:44:24.692Z,61.02
2019-05-17T02:52:45.822Z,61.24
2019-05-17T03:01:07.391Z,60.95
2019-05-17T03:09:28.544Z,61.44
2019-05-17T03:17:53.441Z,61.36
2019-05-17T03:26:13.626Z,61.08
2019-05-17T03:34:36.985Z,61.35
2019-05-17T03:42:57.692Z,61.57
2019-05-17T03:51:18.855Z,61.60
2019-05-17T03:59:43.007Z,61.55
2019-05-17T04:08:03.916Z,61.24
2019-05-17T04:16:25.627Z,61.42
2019-05-17T04:24:47.102Z,61.36
2019-05-17T04:33:08.338Z,61.34
2019-05-17T04:41:41.517Z,61.86
2019-05-17T04:49:53.641Z,61.34
2019-05-17T04:58:15.489Z,61.27
2019-05-17T05:06:36.633Z,61.32
2019-05-17T05:14:58.085Z,61.37
2019-05-17T05:23:19.510Z,60.80
2019-05-17T05:31:42.750Z,60.93
2019-05-17T05:40:03.902Z,60.68
2019-05-17T05:48:25.179Z,60.58
2019-05-17T05:56:46.418Z,60.31
2019-05-17T06:05:07.906Z,59.29
2019-05-17T06:13:29.131Z,60.35
2019-05-17T06:21:51.999Z,59.92
2019-05-17T06:30:13.293Z,59.38
2019-05-17T06:38:34.420Z,59.47
2019-05-17T06:46:55.889Z,58.53
2019-05-17T06:55:17.012Z,58.56
2019-05-17T07:03:39.937Z,58.26
2019-05-17T07:12:01.250Z,57.43
2019-05-17T07:20:22.392Z,56.66
2019-05-17T07:28:43.866Z,56.20
2019-05-17T07:37:05.913Z,54.79
2019-05-17T07:45:29.436Z,53.52
2019-05-17T07:53:50.299Z,52.01
2019-05-17T08:02:11.585Z,51.58
2019-05-17T08:10:32.989Z,50.73
2019-05-17T08:18:54.473Z,50.12
2019-05-17T08:27:15.614Z,50.59
2019-05-17T08:35:36.710Z,51.05
2019-05-17T08:44:00.495Z,49.92
2019-05-17T08:52:21.974Z,48.96
2019-05-17T09:00:43.468Z,48.51
2019-05-17T09:09:04.659Z,49.11
2019-05-17T09:17:25.894Z,49.07
2019-05-17T09:25:47.405Z,48.62
2019-05-17T09:34:09.657Z,48.59
2019-05-17T09:42:31.282Z,48.08
2019-05-17T09:50:52.412Z,47.56
2019-05-17T09:59:13.536Z,48.95
2019-05-17T10:07:35.029Z,48.14
2019-05-17T10:15:56.127Z,48.70
2019-05-17T10:24:19.923Z,50.08
2019-05-17T10:32:41.146Z,50.18
2019-05-17T10:41:02.762Z,50.14
2019-05-17T10:49:24.214Z,50.78
2019-05-17T10:57:45.427Z,49.92
2019-05-17T11:06:06.583Z,49.63
2019-05-17T11:14:27.798Z,47.76
2019-05-17T11:22:48.928Z,45.83
2019-05-17T11:31:10.060Z,45.66
2019-05-17T11:39:31.278Z,45.98
2019-05-17T11:47:53.425Z,46.40
2019-05-17T11:56:14.682Z,46.25
2019-05-17T12:04:36.189Z,46.66
2019-05-17T12:12:58.301Z,46.97
2019-05-17T12:21:19.561Z,46.57
2019-05-17T12:29:41.083Z,46.85
2019-05-17T12:38:02.515Z,46.81
2019-05-17T12:46:23.954Z,46.78
2019-05-17T12:54:45.104Z,47.78
2019-05-17T13:03:06.229Z,47.35
2019-05-17T13:11:27.732Z,44.17
2019-05-17T13:19:49.181Z,42.03
2019-05-17T13:28:10.630Z,42.20
2019-05-17T13:36:31.773Z,42.85
2019-05-17T13:44:53.029Z,43.90
2019-05-17T13:53:14.701Z,43.54
2019-05-17T14:01:35.846Z,44.53
2019-05-17T14:09:57.404Z,43.38
2019-05-17T14:18:18.868Z,43.96
2019-05-17T14:26:40.035Z,42.73
2019-05-17T14:35:01.198Z,42.89
2019-05-17T14:43:23.350Z,44.17
2019-05-17T14:51:44.622Z,46.17
2019-05-17T15:00:06.187Z,45.39
2019-05-17T15:08:27.665Z,47.11
2019-05-17T15:16:48.794Z,48.85
2019-05-17T15:25:10.270Z,46.04
2019-05-17T15:33:31.706Z,45.74
2019-05-17T15:41:52.950Z,42.37
2019-05-17T15:50:18.714Z,42.50
2019-05-17T15:58:40.944Z,42.93
2019-05-17T16:07:03.186Z,42.94
2019-05-17T16:23:50.825Z,44.52
2019-05-17T16:32:11.950Z,46.43
2019-05-17T16:40:33.086Z,44.83
2019-05-17T16:48:54.262Z,45.07
2019-05-17T16:57:15.439Z,45.95
2019-05-17T17:05:36.676Z,46.36
2019-05-17T17:13:58.162Z,45.28
2019-05-17T17:22:19.432Z,45.51
2019-05-17T17:30:40.874Z,46.87
2019-05-17T17:39:03.009Z,46.64
2019-05-17T17:47:24.472Z,46.34
2019-05-17T17:55:46.036Z,45.15
2019-05-17T18:04:07.165Z,44.81
2019-05-17T18:12:28.407Z,46.79
2019-05-17T18:20:49.904Z,47.46
2019-05-17T18:29:11.022Z,48.64
2019-05-17T18:37:32.152Z,49.69
2019-05-17T18:45:53.271Z,50.90
2019-05-17T18:54:14.695Z,51.31
2019-05-17T19:02:36.832Z,52.26
2019-05-17T19:10:58.048Z,52.62
2019-05-17T19:19:19.491Z,52.45
2019-05-17T19:27:40.941Z,52.85
2019-05-17T19:36:02.947Z,53.31
2019-05-17T19:44:24.482Z,53.21
2019-05-17T19:52:45.687Z,53.36
2019-05-17T20:01:06.833Z,53.47
2019-05-17T20:09:28.034Z,53.91
2019-05-17T20:17:49.299Z,54.08
2019-05-17T20:26:10.793Z,54.48
2019-05-17T20:34:32.018Z,54.54
2019-05-17T20:42:53.487Z,54.52
2019-05-17T20:51:14.974Z,55.11
2019-05-17T20:59:36.425Z,55.38
2019-05-17T21:07:57.887Z,55.77
2019-05-17T21:16:19.143Z,56.03
2019-05-17T21:33:07.742Z,56.43
2019-05-17T21:41:28.869Z,56.96
2019-05-17T21:49:50.117Z,57.31
2019-05-17T22:06:37.527Z,57.44
2019-05-17T22:14:58.668Z,57.68
2019-05-17T22:23:19.946Z,58.27
2019-05-17T22:31:41.158Z,58.65
2019-05-17T22:40:02.331Z,58.71
2019-05-17T22:48:23.823Z,58.86
2019-05-17T22:56:45.284Z,58.63
2019-05-17T23:05:06.419Z,58.77
2019-05-17T23:13:27.514Z,58.63
2019-05-17T23:21:48.660Z,58.21
2019-05-17T23:30:09.804Z,57.68
2019-05-17T23:38:31.287Z,58.08
2019-05-17T23:47:06.032Z,58.58
2019-05-17T23:55:15.642Z,59.07
